Time;durP1;ratioP1;P1;durP2;ratioP2;P2;SDS_P1;SDS_P2;PMS_P1;PMS_P2;Temp;Humidity;BMP_temperature;BMP_pressure;BME280_temperature;BME280_humidity;BME280_pressure;Samples;Min_cycle;Max_cycle;Signal;HPM_P1;HPM_P2
2023/04/08 00:01:14;;;;;;;0.77;0.50;;;5.10;99.90;;;;;;5023073;28;20041;-86
2023/04/08 00:03:40;;;;;;;0.47;0.27;;;4.20;99.90;;;;;;5056384;28;20048;-85
2023/04/08 00:06:07;;;;;;;2.13;0.47;;;4.20;99.90;;;;;;5039542;28;20067;-88
2023/04/08 00:08:32;;;;;;;0.50;0.50;;;4.10;99.90;;;;;;5056759;28;20388;-85
2023/04/08 00:11:01;;;;;;;1.00;0.75;;;4.10;99.90;;;;;;5056409;28;20052;-85
2023/04/08 00:13:27;;;;;;;0.93;0.30;;;4.10;99.90;;;;;;5038515;28;20360;-86
2023/04/08 00:15:53;;;;;;;1.10;0.27;;;4.00;99.90;;;;;;5036300;28;20052;-86
2023/04/08 00:18:18;;;;;;;1.10;0.67;;;4.00;99.90;;;;;;5044134;28;20407;-86
2023/04/08 00:20:45;;;;;;;0.40;0.40;;;4.00;99.90;;;;;;5056128;28;20055;-86
2023/04/08 00:23:11;;;;;;;0.35;0.35;;;4.00;99.90;;;;;;5039337;28;20044;-86
2023/04/08 00:25:36;;;;;;;0.70;0.40;;;3.90;99.90;;;;;;5035852;28;20040;-86
2023/04/08 00:28:02;;;;;;;3.60;1.20;;;3.90;99.90;;;;;;5032325;28;20548;-85
2023/04/08 00:30:29;;;;;;;0.70;0.50;;;3.90;99.90;;;;;;5055566;28;20115;-86
2023/04/08 00:32:55;;;;;;;1.63;0.80;;;3.90;99.90;;;;;;5055409;28;20050;-86
2023/04/08 00:35:20;;;;;;;0.53;0.23;;;3.80;99.90;;;;;;5055517;28;20044;-86
2023/04/08 00:37:46;;;;;;;0.50;0.50;;;3.80;99.90;;;;;;5054963;28;20097;-88
2023/04/08 00:40:12;;;;;;;2.33;0.82;;;3.70;99.90;;;;;;5038570;28;20495;-86
2023/04/08 00:42:38;;;;;;;0.97;0.63;;;3.90;99.90;;;;;;5054890;28;20046;-86
2023/04/08 00:45:05;;;;;;;0.83;0.60;;;3.70;99.90;;;;;;5055310;28;20380;-86
2023/04/08 00:47:31;;;;;;;0.55;0.55;;;3.70;99.90;;;;;;5055144;28;20119;-86
2023/04/08 00:49:56;;;;;;;1.13;0.90;;;3.70;99.90;;;;;;5039187;28;20187;-86
2023/04/08 00:52:22;;;;;;;1.00;0.63;;;3.70;99.90;;;;;;5055537;28;20447;-86
2023/04/08 00:58:30;;;;;;;1.33;1.20;;;3.60;99.90;;;;;;5073282;28;20035;-86
2023/04/08 01:01:13;;;;;;;;;;;3.50;99.90;;;;;;5056037;28;20053;-86
2023/04/08 01:04:08;;;;;;;0.45;0.38;;;3.50;99.90;;;;;;5057994;28;19920;-86
2023/04/08 01:10:00;;;;;;;1.17;0.47;;;3.60;99.90;;;;;;5059938;28;20395;-85
2023/04/08 01:12:35;;;;;;;0.60;0.47;;;3.40;99.90;;;;;;5059440;28;20063;-85
2023/04/08 01:18:45;;;;;;;1.42;0.70;;;3.40;99.90;;;;;;5077118;28;20078;-85
2023/04/08 01:21:13;;;;;;;2.38;0.77;;;3.40;99.90;;;;;;5059716;28;20079;-85
2023/04/08 01:24:01;;;;;;;3.05;0.75;;;3.60;99.90;;;;;;5059161;28;20048;-85
2023/04/08 01:26:28;;;;;;;1.00;0.70;;;3.30;99.90;;;;;;5059758;28;20127;-86
2023/04/08 01:28:56;;;;;;;0.55;0.55;;;3.30;99.90;;;;;;5059061;28;20394;-86
2023/04/08 01:31:24;;;;;;;2.42;0.65;;;3.20;99.90;;;;;;5059539;28;20057;-86
2023/04/08 01:33:50;;;;;;;2.15;1.10;;;3.50;99.90;;;;;;5059042;28;20049;-86
2023/04/08 01:36:17;;;;;;;3.15;1.02;;;3.10;99.90;;;;;;5042840;28;20075;-86
2023/04/08 01:42:25;;;;;;;0.55;0.55;;;3.10;99.90;;;;;;5076531;28;20399;-86
2023/04/08 01:48:43;;;;;;;0.90;0.70;;;3.10;99.90;;;;;;5076354;28;20031;-86
2023/04/08 01:51:10;;;;;;;1.02;0.88;;;3.00;99.90;;;;;;5042185;28;20049;-86
2023/04/08 01:53:36;;;;;;;0.93;0.85;;;3.10;99.90;;;;;;5058083;28;20060;-86
2023/04/08 01:56:08;;;;;;;0.70;0.60;;;3.00;99.90;;;;;;5025690;28;20609;-86
2023/04/08 01:58:39;;;;;;;0.85;0.50;;;3.00;99.90;;;;;;5056508;28;20094;-86
2023/04/08 02:01:11;;;;;;;2.83;0.80;;;3.00;99.90;;;;;;5058830;28;20052;-86
2023/04/08 02:03:37;;;;;;;0.85;0.85;;;3.50;99.90;;;;;;5058452;28;20041;-86
2023/04/08 02:06:04;;;;;;;1.75;0.52;;;3.80;99.90;;;;;;5058009;28;20044;-86
2023/04/08 02:08:32;;;;;;;1.17;0.95;;;3.00;99.90;;;;;;5058402;28;20040;-86
2023/04/08 02:10:57;;;;;;;3.50;1.10;;;3.00;99.90;;;;;;5058528;28;20135;-86
2023/04/08 02:13:23;;;;;;;1.37;1.27;;;3.00;99.90;;;;;;5058035;28;20072;-86
2023/04/08 02:15:56;;;;;;;1.70;1.27;;;3.00;99.90;;;;;;5041777;28;20041;-86
2023/04/08 02:18:26;;;;;;;1.15;1.08;;;3.00;99.90;;;;;;5058563;28;20544;-86
2023/04/08 02:21:03;;;;;;;1.40;1.10;;;2.90;99.90;;;;;;5057608;28;20048;-86
2023/04/08 02:23:33;;;;;;;2.05;0.75;;;3.00;99.90;;;;;;5057921;28;20058;-86
2023/04/08 02:26:00;;;;;;;6.13;0.82;;;3.30;99.90;;;;;;5040952;28;20123;-86
2023/04/08 02:28:27;;;;;;;0.75;0.70;;;2.90;99.90;;;;;;5057953;28;20098;-86
2023/04/08 02:30:54;;;;;;;1.25;0.85;;;3.20;99.90;;;;;;5058025;28;20080;-86
2023/04/08 02:33:22;;;;;;;0.60;0.60;;;2.90;99.90;;;;;;5057858;28;20499;-87
2023/04/08 02:35:49;;;;;;;1.08;0.98;;;2.80;99.90;;;;;;5075388;28;20044;-88
2023/04/08 02:38:15;;;;;;;0.63;0.52;;;3.20;99.90;;;;;;5057688;28;20115;-86
2023/04/08 02:40:41;;;;;;;0.70;0.70;;;3.90;99.90;;;;;;5057945;28;20083;-87
2023/04/08 02:43:07;;;;;;;2.53;0.63;;;2.80;99.90;;;;;;5057768;28;20048;-87
2023/04/08 02:45:39;;;;;;;3.72;0.70;;;2.70;99.90;;;;;;5040759;28;20086;-87
2023/04/08 02:48:05;;;;;;;2.30;1.30;;;3.60;99.90;;;;;;5057788;28;20394;-87
2023/04/08 02:50:31;;;;;;;2.50;0.90;;;2.70;99.90;;;;;;5057326;28;20116;-87
2023/04/08 02:52:57;;;;;;;3.10;1.03;;;2.70;99.90;;;;;;5023964;28;20068;-86
2023/04/08 02:55:22;;;;;;;2.60;0.80;;;2.90;99.90;;;;;;5040108;28;20540;-87
2023/04/08 02:57:49;;;;;;;2.40;1.00;;;2.70;99.90;;;;;;5057121;28;20048;-87
2023/04/08 03:00:15;;;;;;;0.97;0.70;;;2.50;99.90;;;;;;5056525;28;20048;-87
2023/04/08 03:02:41;;;;;;;0.80;0.32;;;2.70;99.90;;;;;;5036279;28;20124;-86
2023/04/08 03:05:07;;;;;;;1.73;0.97;;;2.70;99.90;;;;;;5020545;28;20132;-87
2023/04/08 03:07:32;;;;;;;1.05;0.50;;;2.60;99.90;;;;;;5004476;28;20048;-86
2023/04/08 03:09:58;;;;;;;1.67;1.20;;;3.50;99.90;;;;;;5036617;28;20153;-86
2023/04/08 03:12:26;;;;;;;2.37;1.00;;;3.60;99.90;;;;;;5020197;28;20079;-86
2023/04/08 03:14:52;;;;;;;4.00;1.88;;;3.00;99.90;;;;;;5051104;28;20057;-86
2023/04/08 03:17:18;;;;;;;3.47;0.80;;;2.60;99.90;;;;;;5054329;28;20082;-86
2023/04/08 03:19:43;;;;;;;1.73;1.43;;;2.60;99.90;;;;;;5055988;28;20294;-86
2023/04/08 03:22:09;;;;;;;2.10;1.33;;;2.80;99.90;;;;;;5039870;28;20052;-87
2023/04/08 03:24:35;;;;;;;1.00;1.00;;;2.60;99.90;;;;;;5056508;28;20096;-86
2023/04/08 03:27:02;;;;;;;1.42;1.27;;;2.50;99.90;;;;;;5073340;28;20487;-86
2023/04/08 03:29:27;;;;;;;0.30;0.30;;;2.50;99.90;;;;;;5056758;28;20056;-86
2023/04/08 03:31:53;;;;;;;4.33;1.67;;;2.50;99.90;;;;;;5056627;28;20040;-86
2023/04/08 03:34:19;;;;;;;0.30;0.30;;;2.70;99.90;;;;;;5056848;28;20498;-86
2023/04/08 03:36:45;;;;;;;3.33;1.23;;;2.80;99.90;;;;;;5039919;28;20127;-86
2023/04/08 03:39:11;;;;;;;2.87;1.23;;;2.40;99.90;;;;;;5056322;28;20394;-87
2023/04/08 03:41:36;;;;;;;2.20;0.70;;;2.80;99.90;;;;;;5055991;28;20044;-87
2023/04/08 03:44:02;;;;;;;2.53;0.97;;;2.40;99.90;;;;;;5055767;28;20057;-86
2023/04/08 03:46:28;;;;;;;1.17;1.17;;;3.20;99.90;;;;;;5039664;28;20129;-88
2023/04/08 03:48:54;;;;;;;1.43;1.13;;;2.80;99.90;;;;;;5056446;28;20382;-87
2023/04/08 03:51:19;;;;;;;1.23;0.87;;;2.50;99.90;;;;;;5039670;28;20087;-86
2023/04/08 03:53:47;;;;;;;3.53;2.13;;;2.40;99.90;;;;;;5055273;28;20048;-87
2023/04/08 03:56:12;;;;;;;3.47;0.88;;;3.10;99.90;;;;;;5054803;28;20063;-86
2023/04/08 03:58:38;;;;;;;2.37;1.67;;;2.50;99.90;;;;;;5054987;28;20040;-89
2023/04/08 04:01:04;;;;;;;0.60;0.57;;;2.50;99.90;;;;;;5055489;28;20067;-86
2023/04/08 04:03:30;;;;;;;0.60;0.53;;;2.40;99.90;;;;;;5019514;28;20087;-86
2023/04/08 04:05:56;;;;;;;0.88;0.50;;;2.70;99.90;;;;;;5029104;28;20052;-86
2023/04/08 04:08:22;;;;;;;0.30;0.30;;;2.40;99.90;;;;;;5038564;28;20147;-86
2023/04/08 04:10:47;;;;;;;2.53;1.07;;;2.40;99.90;;;;;;5038375;28;20075;-87
2023/04/08 04:13:13;;;;;;;3.07;1.57;;;3.10;99.90;;;;;;5022868;28;20053;-87
2023/04/08 04:15:39;;;;;;;0.70;0.70;;;2.40;99.90;;;;;;5019185;28;20064;-87
2023/04/08 04:18:06;;;;;;;1.67;1.35;;;2.80;99.90;;;;;;5043144;28;20040;-86
2023/04/08 04:20:31;;;;;;;1.35;1.25;;;2.40;99.90;;;;;;5056007;28;20539;-86
2023/04/08 04:22:57;;;;;;;3.23;0.87;;;3.20;99.90;;;;;;5055387;28;20128;-87
2023/04/08 04:25:23;;;;;;;0.60;0.57;;;2.40;99.90;;;;;;5035470;28;20048;-87
2023/04/08 04:27:49;;;;;;;0.67;0.67;;;2.40;99.90;;;;;;5052852;28;20044;-86
2023/04/08 04:30:15;;;;;;;2.47;1.13;;;2.90;99.90;;;;;;5035036;28;20045;-87
2023/04/08 04:32:41;;;;;;;0.63;0.40;;;2.50;99.90;;;;;;5035976;28;20041;-87
2023/04/08 04:35:09;;;;;;;1.33;0.80;;;2.40;99.90;;;;;;5054649;28;20086;-88
2023/04/08 04:37:35;;;;;;;1.75;0.82;;;2.40;99.90;;;;;;5054940;28;20052;-87
2023/04/08 04:40:02;;;;;;;2.20;0.50;;;2.40;99.90;;;;;;5039287;28;20136;-87
2023/04/08 04:42:34;;;;;;;2.83;1.17;;;2.40;99.90;;;;;;5056035;28;20055;-86
2023/04/08 04:45:00;;;;;;;1.35;0.93;;;2.40;99.90;;;;;;5055383;28;20040;-87
2023/04/08 04:47:25;;;;;;;1.03;0.87;;;2.60;99.90;;;;;;5055121;28;20037;-87
2023/04/08 04:49:51;;;;;;;4.30;1.30;;;2.40;99.90;;;;;;5035631;28;20079;-87
2023/04/08 04:52:17;;;;;;;2.53;0.70;;;2.60;99.90;;;;;;5035708;28;20040;-87
2023/04/08 04:54:42;;;;;;;2.77;0.87;;;2.40;99.90;;;;;;5015744;28;20049;-87
2023/04/08 04:57:10;;;;;;;2.53;0.50;;;2.50;99.90;;;;;;5047175;28;20048;-87
2023/04/08 04:59:35;;;;;;;3.15;0.80;;;2.70;99.90;;;;;;5054920;28;20044;-86
2023/04/08 05:02:02;;;;;;;0.50;0.40;;;2.40;99.90;;;;;;5036324;28;20550;-87
2023/04/08 05:04:27;;;;;;;1.02;0.50;;;3.00;99.90;;;;;;5054030;28;20119;-86
2023/04/08 05:06:53;;;;;;;1.23;0.40;;;2.50;99.90;;;;;;5054102;28;20127;-87
2023/04/08 05:09:19;;;;;;;2.00;0.40;;;2.40;99.90;;;;;;5038240;28;20052;-86
2023/04/08 05:11:45;;;;;;;6.77;1.43;;;2.40;99.90;;;;;;5055090;28;20041;-87
2023/04/08 05:14:11;;;;;;;1.90;1.30;;;3.60;99.90;;;;;;5037980;28;20044;-87
2023/04/08 05:16:37;;;;;;;2.63;0.60;;;3.60;99.90;;;;;;5021278;28;20067;-86
2023/04/08 05:19:03;;;;;;;2.63;0.90;;;2.50;99.90;;;;;;5053489;28;20128;-88
2023/04/08 05:21:28;;;;;;;0.60;0.60;;;2.60;99.90;;;;;;5037046;28;20197;-87
2023/04/08 05:23:54;;;;;;;0.90;0.70;;;3.30;99.90;;;;;;5037458;28;20041;-87
2023/04/08 05:26:23;;;;;;;0.50;0.50;;;2.60;99.90;;;;;;5054399;28;20053;-86
2023/04/08 05:28:50;;;;;;;1.50;0.40;;;2.70;99.90;;;;;;5053965;28;20501;-87
2023/04/08 05:31:16;;;;;;;0.70;0.70;;;2.80;99.90;;;;;;5037700;28;20496;-87
2023/04/08 05:33:42;;;;;;;0.63;0.35;;;3.10;99.90;;;;;;5037511;28;20444;-86
2023/04/08 05:36:09;;;;;;;0.47;0.47;;;2.90;99.90;;;;;;5053709;28;20052;-86
2023/04/08 05:38:35;;;;;;;0.88;0.68;;;3.50;99.90;;;;;;5036677;28;20048;-86
2023/04/08 05:41:01;;;;;;;2.20;0.70;;;3.20;99.90;;;;;;5037084;28;20501;-86
2023/04/08 05:43:26;;;;;;;2.10;0.57;;;3.90;99.90;;;;;;5036818;28;20118;-85
2023/04/08 05:45:52;;;;;;;1.03;0.60;;;3.10;99.90;;;;;;5053359;28;20179;-86
2023/04/08 05:48:18;;;;;;;3.33;1.13;;;3.20;99.90;;;;;;5053848;28;20071;-86
2023/04/08 05:50:44;;;;;;;1.87;1.23;;;3.30;99.90;;;;;;5057108;28;20055;-86
2023/04/08 05:53:10;;;;;;;1.83;1.73;;;3.40;99.90;;;;;;5057426;28;20530;-88
2023/04/08 05:55:35;;;;;;;2.73;1.10;;;3.70;99.90;;;;;;5055881;28;20128;-86
2023/04/08 05:58:01;;;;;;;2.17;1.80;;;3.70;99.90;;;;;;5040480;28;20045;-86
2023/04/08 06:00:27;;;;;;;1.47;0.97;;;3.80;99.90;;;;;;5041064;28;20040;-86
2023/04/08 06:02:52;;;;;;;2.40;1.33;;;3.90;99.90;;;;;;5074233;28;20498;-86
2023/04/08 06:05:18;;;;;;;1.13;0.43;;;4.00;99.90;;;;;;5040517;28;20040;-86
2023/04/08 06:07:45;;;;;;;0.80;0.70;;;4.20;99.90;;;;;;5048640;28;20494;-86
2023/04/08 06:10:10;;;;;;;3.75;1.10;;;4.40;99.90;;;;;;5038085;28;20279;-86
2023/04/08 06:12:39;;;;;;;2.03;0.80;;;4.70;99.90;;;;;;5023942;28;20497;-86
2023/04/08 06:15:07;;;;;;;2.95;1.45;;;5.00;99.90;;;;;;5056487;28;20076;-86
2023/04/08 06:17:35;;;;;;;2.50;0.80;;;5.00;99.90;;;;;;5039629;28;20044;-86
2023/04/08 06:20:02;;;;;;;5.78;1.33;;;5.00;99.90;;;;;;5039426;28;20049;-86
2023/04/08 06:22:28;;;;;;;0.82;0.82;;;5.00;99.90;;;;;;5037913;28;20048;-91
2023/04/08 06:24:57;;;;;;;2.15;1.15;;;5.20;99.90;;;;;;5041553;28;20045;-91
2023/04/08 06:27:24;;;;;;;1.63;1.27;;;5.60;99.90;;;;;;5053831;28;20044;-89
2023/04/08 06:29:52;;;;;;;2.65;1.35;;;5.70;99.90;;;;;;5051772;28;20128;-89
2023/04/08 06:32:18;;;;;;;1.90;1.42;;;5.90;99.90;;;;;;5038323;28;20044;-88
2023/04/08 06:34:47;;;;;;;3.08;1.80;;;6.30;99.90;;;;;;5038730;28;20056;-90
2023/04/08 06:37:15;;;;;;;2.35;1.15;;;6.20;99.90;;;;;;5037021;28;20494;-88
2023/04/08 06:39:43;;;;;;;3.47;1.27;;;6.30;99.90;;;;;;5040399;28;20045;-88
2023/04/08 06:42:09;;;;;;;2.65;1.33;;;6.30;99.90;;;;;;5040011;28;20048;-88
2023/04/08 06:44:35;;;;;;;1.50;1.05;;;7.00;99.90;;;;;;5036468;28;20040;-88
2023/04/08 06:47:06;;;;;;;2.50;1.27;;;6.70;99.90;;;;;;4992736;28;20060;-88
2023/04/08 06:49:42;;;;;;;3.72;1.27;;;6.80;99.90;;;;;;5039627;28;20398;-89
2023/04/08 06:52:08;;;;;;;3.95;1.63;;;7.00;99.90;;;;;;5040365;28;20049;-86
2023/04/08 06:54:33;;;;;;;3.00;1.43;;;7.20;99.90;;;;;;5049945;28;20052;-85
2023/04/08 06:56:59;;;;;;;2.23;1.50;;;7.30;99.90;;;;;;5039841;28;20044;-87
2023/04/08 06:59:25;;;;;;;3.27;1.37;;;7.40;99.90;;;;;;5040680;28;20048;-86
2023/04/08 07:01:50;;;;;;;3.67;1.70;;;7.60;99.90;;;;;;5038959;28;20099;-87
2023/04/08 07:04:16;;;;;;;2.00;1.00;;;7.80;99.90;;;;;;5017422;28;20040;-86
2023/04/08 07:06:42;;;;;;;2.40;1.30;;;8.10;99.90;;;;;;5039452;28;20052;-86
2023/04/08 07:09:08;;;;;;;3.10;2.00;;;8.30;99.90;;;;;;5059476;28;20730;-87
2023/04/08 07:11:36;;;;;;;5.00;1.83;;;8.50;99.90;;;;;;5057634;28;20449;-89
2023/04/08 07:14:02;;;;;;;3.70;1.52;;;8.60;99.90;;;;;;5075659;28;20050;-90
2023/04/08 07:16:28;;;;;;;2.13;1.50;;;8.70;99.90;;;;;;5018055;28;20135;-90
2023/04/08 07:18:54;;;;;;;2.63;1.43;;;8.90;99.90;;;;;;5017254;28;20044;-88
2023/04/08 07:21:20;;;;;;;1.95;1.35;;;8.90;99.90;;;;;;5037889;28;20290;-89
2023/04/08 07:23:48;;;;;;;1.63;0.97;;;8.90;99.90;;;;;;5054028;28;20041;-89
2023/04/08 07:26:13;;;;;;;4.60;2.03;;;8.90;99.90;;;;;;5052295;28;20040;-89
2023/04/08 07:28:39;;;;;;;3.07;1.47;;;8.90;99.90;;;;;;5053729;28;20502;-87
2023/04/08 07:31:15;;;;;;;2.65;1.25;;;8.90;99.90;;;;;;5049064;28;20074;-87
2023/04/08 07:33:44;;;;;;;2.33;1.50;;;9.00;99.90;;;;;;5021904;28;20048;-88
2023/04/08 07:36:11;;;;;;;1.83;1.20;;;9.20;99.90;;;;;;5077839;28;20048;-90
2023/04/08 07:38:40;;;;;;;1.55;1.10;;;9.20;99.90;;;;;;5050906;28;20052;-90
2023/04/08 07:41:05;;;;;;;0.85;0.82;;;9.10;99.90;;;;;;5053782;28;20040;-88
2023/04/08 07:43:33;;;;;;;2.90;1.70;;;9.20;99.90;;;;;;5052787;28;20048;-89
2023/04/08 07:46:05;;;;;;;1.92;1.45;;;9.20;99.90;;;;;;5052242;28;20120;-88
2023/04/08 07:48:32;;;;;;;2.03;1.13;;;9.10;99.90;;;;;;5035306;28;20044;-87
2023/04/08 07:51:01;;;;;;;3.25;1.38;;;9.10;99.90;;;;;;5052431;28;20099;-87
2023/04/08 07:53:27;;;;;;;2.67;1.02;;;8.80;99.90;;;;;;5035620;28;20048;-89
2023/04/08 07:55:53;;;;;;;2.33;0.93;;;8.50;99.90;;;;;;5049948;28;20055;-88
2023/04/08 07:58:18;;;;;;;1.80;1.50;;;8.20;99.90;;;;;;5037614;28;20283;-87
2023/04/08 08:00:44;;;;;;;1.30;1.20;;;8.10;99.90;;;;;;5046368;28;20403;-87
2023/04/08 08:03:10;;;;;;;4.10;1.27;;;8.10;99.90;;;;;;5021100;28;20506;-86
2023/04/08 08:05:36;;;;;;;1.23;0.87;;;8.40;99.90;;;;;;5076607;28;20332;-86
2023/04/08 08:08:02;;;;;;;2.53;1.27;;;8.70;99.90;;;;;;5018721;28;20446;-88
2023/04/08 08:10:28;;;;;;;1.90;1.53;;;9.10;99.90;;;;;;5027172;28;20048;-87
2023/04/08 08:12:54;;;;;;;1.92;1.40;;;9.60;99.90;;;;;;5055375;28;20807;-86
2023/04/08 08:15:19;;;;;;;1.77;1.42;;;9.80;99.90;;;;;;5035955;28;20085;-87
2023/04/08 08:17:45;;;;;;;2.57;1.30;;;9.90;99.90;;;;;;5020250;28;20044;-89
2023/04/08 08:20:11;;;;;;;1.67;1.47;;;10.00;99.90;;;;;;5043382;28;20471;-85
2023/04/08 08:22:38;;;;;;;3.57;1.80;;;10.00;99.90;;;;;;5048191;28;20044;-84
2023/04/08 08:25:05;;;;;;;3.13;1.65;;;9.90;99.90;;;;;;5052746;28;20045;-86
2023/04/08 08:27:33;;;;;;;1.50;1.13;;;9.80;99.90;;;;;;5039577;28;20463;-85
2023/04/08 08:30:37;;;;;;;1.58;0.68;;;10.00;99.90;;;;;;5045001;28;20063;-86
2023/04/08 08:36:37;;;;;;;1.88;1.27;;;10.50;99.90;;;;;;5056335;28;20056;-87
2023/04/08 08:39:03;;;;;;;2.40;1.40;;;11.00;99.90;;;;;;5041304;28;20102;-86
2023/04/08 08:41:35;;;;;;;1.85;1.20;;;11.00;99.90;;;;;;5056172;28;20041;-86
2023/04/08 08:44:02;;;;;;;2.55;1.30;;;11.00;99.90;;;;;;5035134;28;20227;-86
2023/04/08 08:46:28;;;;;;;0.85;0.57;;;11.00;99.90;;;;;;5042748;28;20059;-87
2023/04/08 08:48:54;;;;;;;1.52;0.90;;;10.80;99.90;;;;;;5049272;28;20123;-87
2023/04/08 08:51:20;;;;;;;1.10;1.00;;;10.70;99.90;;;;;;5059289;28;20040;-87
2023/04/08 08:53:46;;;;;;;1.73;0.95;;;10.50;99.90;;;;;;5059592;28;20044;-87
2023/04/08 08:56:11;;;;;;;1.43;1.30;;;10.20;99.90;;;;;;5093419;28;20525;-87
2023/04/08 08:58:38;;;;;;;2.07;1.23;;;9.90;99.90;;;;;;5085363;28;20113;-86
2023/04/08 09:01:56;;;;;;;1.80;1.23;;;9.60;99.90;;;;;;5055805;28;20041;-87
2023/04/08 09:08:25;;;;;;;3.10;1.08;;;9.40;99.90;;;;;;5073479;28;20349;-86
2023/04/08 09:10:51;;;;;;;2.53;0.98;;;9.20;99.90;;;;;;5039002;28;20052;-87
2023/04/08 09:13:17;;;;;;;2.85;1.23;;;9.10;99.90;;;;;;5075837;28;20101;-90
2023/04/08 09:16:02;;;;;;;2.27;1.47;;;9.10;99.90;;;;;;5036908;28;20052;-84
2023/04/08 09:18:28;;;;;;;2.30;1.13;;;9.10;99.90;;;;;;5057179;28;20068;-84
2023/04/08 09:20:54;;;;;;;1.20;1.10;;;9.10;99.90;;;;;;5051148;28;21558;-84
2023/04/08 09:23:20;;;;;;;1.90;1.43;;;9.10;99.90;;;;;;5038824;28;20060;-84
2023/04/08 09:25:45;;;;;;;4.20;1.60;;;9.10;99.90;;;;;;5071176;28;20413;-85
2023/04/08 09:28:20;;;;;;;2.37;1.10;;;9.10;99.90;;;;;;5088173;28;20090;-85
2023/04/08 09:30:46;;;;;;;1.98;1.23;;;9.30;99.90;;;;;;5024796;28;20479;-84
2023/04/08 09:33:12;;;;;;;0.80;0.73;;;9.40;99.90;;;;;;5039281;28;20041;-84
2023/04/08 09:35:58;;;;;;;1.83;1.58;;;9.40;99.90;;;;;;5023264;28;20052;-84
2023/04/08 09:38:24;;;;;;;1.85;1.33;;;9.50;99.90;;;;;;5041434;28;20217;-90
2023/04/08 09:40:51;;;;;;;;;;;9.30;99.90;;;;;;5053252;28;20411;-86
2023/04/08 09:43:22;;;;;;;2.00;1.73;;;9.20;99.90;;;;;;5056472;28;19920;-95
2023/04/08 09:45:49;;;;;;;1.95;1.20;;;9.20;99.90;;;;;;5084413;28;20048;-85
2023/04/08 09:48:23;;;;;;;2.10;1.38;;;9.10;99.90;;;;;;5080129;28;20042;-87
2023/04/08 09:50:51;;;;;;;1.27;1.02;;;9.10;99.90;;;;;;5056962;28;20052;-85
2023/04/08 09:53:31;;;;;;;2.72;1.63;;;9.10;99.90;;;;;;5056070;28;20106;-85
2023/04/08 09:55:59;;;;;;;2.63;1.60;;;9.10;99.90;;;;;;5057295;28;20056;-88
2023/04/08 09:58:28;;;;;;;1.20;1.10;;;8.90;99.90;;;;;;5053370;28;20053;-86
2023/04/08 10:00:54;;;;;;;2.28;1.13;;;8.90;99.90;;;;;;5055459;28;20489;-86
2023/04/08 10:03:34;;;;;;;1.85;0.77;;;8.90;99.90;;;;;;5033940;28;20049;-85
2023/04/08 10:06:02;;;;;;;2.35;1.75;;;8.90;99.90;;;;;;5052359;28;20050;-85
2023/04/08 10:08:29;;;;;;;1.95;0.68;;;8.90;99.90;;;;;;5081719;28;20043;-88
2023/04/08 10:10:56;;;;;;;4.03;1.25;;;8.90;99.90;;;;;;5045932;28;20048;-87
2023/04/08 10:13:22;;;;;;;;;;;8.80;99.90;;;;;;5034711;28;20395;-86
2023/04/08 10:15:48;;;;;;;2.00;0.95;;;8.80;99.90;;;;;;5043042;28;20317;-84
2023/04/08 10:18:17;;;;;;;1.77;1.07;;;8.80;99.90;;;;;;5040281;28;20040;-85
2023/04/08 10:20:44;;;;;;;1.42;1.02;;;8.80;99.90;;;;;;5052467;28;20303;-84
2023/04/08 10:23:15;;;;;;;1.25;0.98;;;8.90;99.90;;;;;;5057419;28;20116;-84
2023/04/08 10:25:46;;;;;;;2.90;1.35;;;8.90;99.90;;;;;;5077976;28;20043;-85
2023/04/08 10:28:12;;;;;;;1.17;1.08;;;8.90;99.90;;;;;;5078615;28;20036;-87
2023/04/08 10:30:37;;;;;;;2.87;0.90;;;9.00;99.90;;;;;;5057349;28;20085;-85
2023/04/08 10:33:10;;;;;;;2.47;0.93;;;9.10;99.90;;;;;;5079855;28;20123;-85
2023/04/08 10:35:40;;;;;;;1.85;0.70;;;9.10;99.90;;;;;;5060515;28;20475;-84
2023/04/08 10:38:07;;;;;;;0.90;0.80;;;9.20;99.90;;;;;;5056587;28;20505;-85
2023/04/08 10:40:37;;;;;;;2.28;1.35;;;9.40;99.90;;;;;;5075574;28;20055;-85
2023/04/08 10:43:06;;;;;;;1.85;0.90;;;9.60;99.90;;;;;;5055414;28;20056;-85
2023/04/08 10:45:32;;;;;;;1.40;0.65;;;9.60;99.90;;;;;;5057136;28;20041;-85
2023/04/08 10:48:13;;;;;;;1.38;1.05;;;9.70;99.90;;;;;;5053386;28;20036;-84
2023/04/08 10:50:40;;;;;;;1.58;0.95;;;9.70;99.90;;;;;;5080190;28;20076;-84
2023/04/08 10:53:06;;;;;;;0.73;0.73;;;9.80;99.90;;;;;;5046612;28;20048;-84
2023/04/08 10:55:32;;;;;;;2.40;1.05;;;9.80;99.90;;;;;;5055288;28;20441;-84
2023/04/08 10:58:09;;;;;;;2.45;1.05;;;9.80;99.90;;;;;;5058176;28;20118;-84
2023/04/08 11:00:37;;;;;;;2.42;0.85;;;9.70;99.90;;;;;;5053295;28;20036;-84
2023/04/08 11:03:05;;;;;;;1.48;0.85;;;9.70;99.90;;;;;;5057792;28;20114;-85
2023/04/08 11:05:32;;;;;;;1.20;0.88;;;9.70;99.90;;;;;;5055758;28;20041;-85
2023/04/08 11:07:59;;;;;;;1.40;1.00;;;9.80;99.90;;;;;;5076525;28;20131;-85
2023/04/08 11:10:25;;;;;;;0.75;0.70;;;9.90;99.90;;;;;;5080349;28;20044;-85
2023/04/08 11:12:52;;;;;;;;;;;9.90;99.90;;;;;;5050093;28;20051;-85
2023/04/08 11:15:18;;;;;;;1.57;1.10;;;9.90;99.90;;;;;;5050453;28;19970;-85
2023/04/08 11:17:46;;;;;;;1.30;0.97;;;10.00;99.90;;;;;;5035974;28;20044;-85
2023/04/08 11:20:13;;;;;;;0.73;0.70;;;10.00;99.90;;;;;;5030540;28;20485;-85
2023/04/08 11:22:39;;;;;;;1.27;0.93;;;10.00;99.90;;;;;;5064918;28;20041;-87
2023/04/08 11:25:08;;;;;;;1.08;0.68;;;10.10;99.90;;;;;;5052689;28;20491;-82
2023/04/08 11:27:34;;;;;;;1.92;0.75;;;10.10;99.90;;;;;;5036514;28;20051;-84
2023/04/08 11:30:01;;;;;;;1.77;0.90;;;10.10;99.90;;;;;;5029342;28;20084;-87
2023/04/08 11:32:28;;;;;;;1.48;1.13;;;10.20;99.90;;;;;;5071547;28;20051;-86
2023/04/08 11:34:54;;;;;;;1.13;1.02;;;10.20;99.90;;;;;;5072083;28;20045;-82
2023/04/08 11:37:21;;;;;;;1.60;0.50;;;10.20;99.90;;;;;;5073913;28;20051;-83
2023/04/08 11:39:46;;;;;;;2.35;1.30;;;10.20;99.90;;;;;;5039049;28;20382;-84
2023/04/08 11:42:38;;;;;;;2.63;1.33;;;10.10;99.90;;;;;;5048290;28;20471;-86
2023/04/08 11:45:22;;;;;;;1.10;0.98;;;10.10;99.90;;;;;;5052890;28;20059;-84
2023/04/08 11:47:48;;;;;;;2.50;1.10;;;10.00;99.90;;;;;;5073253;28;20048;-84
2023/04/08 11:50:24;;;;;;;1.93;1.40;;;10.00;99.90;;;;;;5074194;28;20048;-85
2023/04/08 11:52:50;;;;;;;1.10;1.00;;;10.00;99.90;;;;;;5055687;28;20291;-84
2023/04/08 11:55:25;;;;;;;1.33;1.20;;;10.00;99.90;;;;;;5073683;28;20131;-83
2023/04/08 11:57:52;;;;;;;2.28;1.45;;;10.00;99.90;;;;;;5069322;28;20115;-84
2023/04/08 12:00:18;;;;;;;1.60;1.48;;;10.00;99.90;;;;;;5055072;28;20094;-84
2023/04/08 12:02:46;;;;;;;3.28;1.35;;;10.10;99.90;;;;;;5054891;28;20056;-84
2023/04/08 12:05:13;;;;;;;2.10;1.00;;;10.10;99.90;;;;;;5056111;28;20137;-84
2023/04/08 12:07:39;;;;;;;1.85;1.10;;;10.00;99.90;;;;;;5056531;28;20041;-84
2023/04/08 12:10:26;;;;;;;3.43;1.60;;;10.00;99.90;;;;;;5073916;28;20058;-84
2023/04/08 12:12:52;;;;;;;;;;;10.00;99.90;;;;;;5056179;28;20383;-84
2023/04/08 12:15:18;;;;;;;2.05;1.63;;;9.90;99.90;;;;;;5055939;28;19927;-84
2023/04/08 12:17:44;;;;;;;2.60;1.27;;;9.90;99.90;;;;;;5055768;28;20166;-83
2023/04/08 12:20:13;;;;;;;3.25;1.60;;;9.90;99.90;;;;;;5056641;28;20052;-84
2023/04/08 12:22:39;;;;;;;6.10;1.20;;;9.90;99.90;;;;;;5074381;28;20600;-84
2023/04/08 12:25:05;;;;;;;1.48;0.73;;;9.80;99.90;;;;;;5074676;28;20047;-83
2023/04/08 12:27:34;;;;;;;1.95;1.27;;;9.80;99.90;;;;;;5055939;28;20127;-83
2023/04/08 12:30:02;;;;;;;3.25;1.73;;;9.80;99.90;;;;;;5055673;28;20478;-83
2023/04/08 12:32:27;;;;;;;1.25;1.05;;;9.80;99.90;;;;;;5073641;28;20391;-83
2023/04/08 12:34:53;;;;;;;3.63;1.83;;;9.80;99.90;;;;;;5039829;28;20053;-84
2023/04/08 12:37:57;;;;;;;2.37;1.30;;;9.80;99.90;;;;;;5056353;28;20044;-84
2023/04/08 12:40:22;;;;;;;3.47;1.88;;;9.80;99.90;;;;;;5055764;28;20040;-83
2023/04/08 12:42:48;;;;;;;2.60;1.30;;;9.80;99.90;;;;;;5073356;28;20529;-84
2023/04/08 12:45:14;;;;;;;2.03;1.60;;;9.80;99.90;;;;;;5055305;28;20435;-83
2023/04/08 12:47:40;;;;;;;4.00;2.00;;;9.80;99.90;;;;;;5037717;28;20040;-90
2023/04/08 12:50:08;;;;;;;4.00;1.40;;;9.90;99.90;;;;;;5054761;28;20063;-84
2023/04/08 12:52:34;;;;;;;4.00;1.70;;;9.90;99.90;;;;;;5055139;28;20075;-84
2023/04/08 12:55:00;;;;;;;4.00;1.60;;;9.90;99.90;;;;;;5040077;28;20439;-84
2023/04/08 12:57:27;;;;;;;3.87;1.93;;;9.90;99.90;;;;;;5073751;28;20060;-84
2023/04/08 12:59:53;;;;;;;2.50;1.70;;;9.90;99.90;;;;;;5058681;28;20450;-84
2023/04/08 13:02:18;;;;;;;2.80;1.30;;;9.90;99.90;;;;;;5077567;28;20045;-85
2023/04/08 13:04:44;;;;;;;0.63;0.63;;;9.90;99.90;;;;;;5042861;28;20459;-84
2023/04/08 13:07:10;;;;;;;3.70;1.63;;;9.80;99.90;;;;;;5077730;28;20403;-83
2023/04/08 13:09:35;;;;;;;4.73;1.63;;;9.90;99.90;;;;;;5042721;28;20045;-82
2023/04/08 13:12:02;;;;;;;3.70;1.53;;;9.80;99.90;;;;;;5076008;28;20037;-84
2023/04/08 13:14:28;;;;;;;;;;;9.90;99.90;;;;;;5059874;28;20082;-84
2023/04/08 13:16:53;;;;;;;2.22;1.45;;;9.90;99.90;;;;;;5058891;28;19924;-86
2023/04/08 13:19:19;;;;;;;1.20;1.20;;;9.90;99.90;;;;;;5075805;28;20125;-82
2023/04/08 13:21:45;;;;;;;4.47;2.13;;;9.90;99.90;;;;;;5056373;28;20441;-85
2023/04/08 13:24:10;;;;;;;1.47;1.13;;;9.90;99.90;;;;;;5074878;28;20437;-88
2023/04/08 13:26:36;;;;;;;2.83;2.27;;;9.90;99.90;;;;;;5074545;28;20048;-85